Time;durP1;ratioP1;P1;durP2;ratioP2;P2;SDS_P1;SDS_P2;PMS_P1;PMS_P2;Temp;Humidity;BMP_temperature;BMP_pressure;BME280_temperature;BME280_humidity;BME280_pressure;Samples;Min_cycle;Max_cycle;Signal;HPM_P1;HPM_P2
2023/10/12 00:04:46;;;;;;;14.30;3.75;;;;;;;-145.68;50.78;72802.28;10472355;28;21037;-69
2023/10/12 00:09:50;;;;;;;18.98;4.05;;;;;;;-145.68;50.43;72786.28;10473475;28;20325;-69
2023/10/12 00:14:54;;;;;;;11.40;3.53;;;;;;;-145.68;50.36;72776.28;10475519;28;20195;-69
2023/10/12 00:19:54;;;;;;;17.08;4.10;;;;;;;-145.68;50.26;72768.31;10474954;28;20206;-68
2023/10/12 00:24:54;;;;;;;9.50;3.30;;;;;;;-145.68;50.43;72768.31;10470783;28;20198;-69
2023/10/12 00:29:55;;;;;;;17.77;4.07;;;;;;;-145.68;50.18;72746.31;10473399;28;20219;-68
2023/10/12 00:34:57;;;;;;;12.25;3.90;;;;;;;-145.68;50.08;72742.31;10474823;28;20711;-68
2023/10/12 00:40:21;;;;;;;10.63;3.60;;;;;;;-145.68;50.08;72744.31;10474550;28;20246;-68
2023/10/12 00:45:27;;;;;;;14.43;3.50;;;;;;;-145.68;49.89;72740.31;10470493;28;20688;-69
2023/10/12 00:50:29;;;;;;;13.30;3.90;;;;;;;-145.68;50.13;72754.31;10473351;28;21592;-68
2023/10/12 00:55:36;;;;;;;11.07;3.20;;;;;;;-145.68;49.98;72742.31;10460821;28;20207;-68
2023/10/12 01:00:46;;;;;;;13.45;3.30;;;;;;;-145.68;50.42;72764.31;10474049;28;20282;-68
2023/10/12 01:05:57;;;;;;;13.63;3.20;;;;;;;-145.68;50.58;72758.31;10474190;28;20195;-69
2023/10/12 01:11:04;;;;;;;14.32;4.07;;;;;;;-145.68;50.62;72752.31;10473254;28;20631;-69
2023/10/12 01:16:16;;;;;;;18.85;4.40;;;;;;;-145.68;50.78;72752.31;10473798;28;20199;-69
2023/10/12 01:21:17;;;;;;;12.90;4.60;;;;;;;-145.68;51.12;72760.31;10472931;28;20211;-68
2023/10/12 01:26:19;;;;;;;11.80;3.90;;;;;;;-145.68;50.80;72742.31;10472391;28;20824;-68
2023/10/12 01:31:27;;;;;;;12.65;3.75;;;;;;;-145.68;51.12;72738.31;10472567;28;20341;-68
2023/10/12 01:36:30;;;;;;;15.07;4.38;;;;;;;-145.68;51.15;72724.34;10481852;28;20183;-68
2023/10/12 01:41:32;;;;;;;9.75;3.80;;;;;;;-145.68;51.24;72728.34;10477274;28;20730;-68
2023/10/12 01:46:35;;;;;;;18.33;4.28;;;;;;;-145.68;51.61;72724.34;10477349;28;20222;-69
2023/10/12 01:51:45;;;;;;;16.85;4.25;;;;;;;-145.68;51.49;72716.34;10476219;28;20220;-68
2023/10/12 01:56:46;;;;;;;12.02;3.63;;;;;;;-145.68;51.71;72728.34;10480959;28;20646;-69
2023/10/12 02:01:47;;;;;;;13.70;3.83;;;;;;;-145.68;52.01;72730.34;10476552;28;20216;-69
2023/10/12 02:06:52;;;;;;;12.75;4.47;;;;;;;-145.68;51.94;72732.34;10474357;28;20226;-69
2023/10/12 02:11:57;;;;;;;11.82;3.95;;;;;;;-145.68;52.13;72742.31;10479209;28;20211;-68
2023/10/12 02:17:02;;;;;;;13.90;3.58;;;;;;;-145.68;52.34;72744.31;10478446;28;20187;-69
2023/10/12 02:22:04;;;;;;;12.82;3.15;;;;;;;-145.68;52.42;72744.31;10478304;28;20716;-69
2023/10/12 02:27:04;;;;;;;10.80;4.10;;;;;;;-145.68;52.21;72724.34;10478936;28;20219;-69
2023/10/12 02:32:17;;;;;;;11.60;3.95;;;;;;;-145.68;52.79;72748.31;10474730;28;20605;-68
2023/10/12 02:37:18;;;;;;;13.02;3.42;;;;;;;-145.68;52.61;72742.31;10479466;28;20314;-69
2023/10/12 02:42:21;;;;;;;14.35;3.85;;;;;;;-145.68;52.11;72710.34;10473878;28;20238;-68
2023/10/12 02:47:32;;;;;;;15.18;4.57;;;;;;;-145.68;52.08;72710.34;10477963;28;20584;-68
2023/10/12 02:52:32;;;;;;;13.07;3.67;;;;;;;-145.68;52.04;72716.34;10471610;28;20674;-69
2023/10/12 02:57:33;;;;;;;13.95;4.10;;;;;;;-145.68;51.98;72714.34;10476799;28;20181;-69
2023/10/12 03:02:34;;;;;;;11.48;3.97;;;;;;;-145.68;51.78;72704.34;10476926;28;20265;-69
2023/10/12 03:07:37;;;;;;;13.77;3.78;;;;;;;-145.68;51.67;72702.34;10482741;28;20216;-69
2023/10/12 03:12:41;;;;;;;14.40;4.10;;;;;;;-145.68;51.93;72716.34;10476612;28;20218;-69
2023/10/12 03:17:45;;;;;;;11.98;4.05;;;;;;;-145.68;52.13;72718.34;10485935;28;20226;-68
2023/10/12 03:22:47;;;;;;;10.70;3.83;;;;;;;-145.68;52.31;72724.34;10484368;28;20302;-68
2023/10/12 03:27:52;;;;;;;11.25;4.30;;;;;;;-145.68;52.43;72732.34;10465954;28;20261;-68
2023/10/12 03:32:52;;;;;;;13.05;4.38;;;;;;;-145.68;52.24;72724.34;10469494;28;21052;-68
2023/10/12 03:38:00;;;;;;;15.35;3.75;;;;;;;-145.68;52.59;72736.31;10470359;28;20196;-68
2023/10/12 03:43:10;;;;;;;12.02;3.53;;;;;;;-145.68;52.82;72742.31;10471277;28;20648;-68
2023/10/12 03:48:48;;;;;;;9.40;3.80;;;;;;;-145.68;52.71;72738.31;10465405;28;20245;-68
2023/10/12 03:53:37;;;;;;;11.85;4.20;;;;;;;-145.68;52.89;72742.31;10470834;28;20227;-69
2023/10/12 03:58:47;;;;;;;11.10;3.60;;;;;;;-145.68;52.98;72732.34;10466805;28;20198;-68
2023/10/12 04:03:58;;;;;;;14.75;4.00;;;;;;;-145.68;53.15;72750.31;10462590;28;20212;-68
2023/10/12 04:08:59;;;;;;;13.20;4.53;;;;;;;-145.68;53.11;72744.31;10470473;28;20718;-69
2023/10/12 04:14:19;;;;;;;11.57;4.40;;;;;;;-145.68;53.68;72766.31;10469941;28;20295;-69
2023/10/12 04:19:29;;;;;;;10.20;4.57;;;;;;;-145.68;53.94;72772.31;10467801;28;20248;-68
2023/10/12 04:24:42;;;;;;;13.50;4.70;;;;;;;-145.68;54.09;72766.31;10469121;28;20677;-68
2023/10/12 04:29:49;;;;;;;13.80;4.40;;;;;;;-145.68;54.26;72786.28;10467151;28;20634;-68
2023/10/12 04:34:50;;;;;;;9.75;3.95;;;;;;;-145.68;54.61;72794.28;10470112;28;20666;-68
2023/10/12 04:39:56;;;;;;;8.77;4.15;;;;;;;-145.68;54.70;72804.28;10469601;28;20732;-68
2023/10/12 04:45:16;;;;;;;10.70;3.90;;;;;;;-145.68;55.25;72816.25;10469842;28;20218;-69
2023/10/12 04:50:43;;;;;;;9.82;3.92;;;;;;;-145.68;55.26;72800.28;10467143;28;20219;-68
2023/10/12 04:55:47;;;;;;;9.48;3.97;;;;;;;-145.68;55.68;72806.28;10467115;28;20196;-68
2023/10/12 05:00:48;;;;;;;8.10;4.35;;;;;;;-145.68;56.43;72832.25;10469297;28;20588;-68
2023/10/12 05:05:56;;;;;;;11.00;4.28;;;;;;;-145.68;56.75;72842.25;10469569;28;20207;-68
2023/10/12 05:10:56;;;;;;;10.32;4.18;;;;;;;-145.68;56.93;72840.25;10477169;28;20223;-69
2023/10/12 05:16:02;;;;;;;14.95;4.53;;;;;;;-145.68;57.35;72876.22;10477555;28;20714;-68
2023/10/12 05:21:05;;;;;;;13.13;4.30;;;;;;;-145.68;57.30;72862.22;10477346;28;20211;-68
2023/10/12 05:36:11;;;;;;;8.98;4.57;;;;;;;-145.68;58.10;72888.22;10472978;28;20196;-67
2023/10/12 05:41:11;;;;;;;10.73;4.30;;;;;;;-145.68;58.10;72884.22;10476199;28;20231;-68
2023/10/12 05:46:15;;;;;;;8.98;3.88;;;;;;;-145.68;58.33;72904.19;10476537;28;20717;-68
2023/10/12 05:51:21;;;;;;;14.32;4.53;;;;;;;-145.68;58.38;72900.19;10475966;28;20687;-68
2023/10/12 05:56:23;;;;;;;11.38;5.03;;;;;;;-145.68;58.55;72906.19;10475985;28;20192;-68
2023/10/12 06:01:32;;;;;;;13.88;4.38;;;;;;;-145.68;58.31;72914.19;10475917;28;20219;-69
2023/10/12 06:06:51;;;;;;;16.55;4.97;;;;;;;-145.68;58.16;72922.19;10468448;28;20216;-68
2023/10/12 06:11:53;;;;;;;14.75;4.50;;;;;;;-145.68;58.09;72940.16;10459441;28;20732;-68
2023/10/12 06:16:59;;;;;;;10.70;4.32;;;;;;;-145.68;58.28;72940.16;10467893;28;20279;-68
2023/10/12 06:22:13;;;;;;;11.48;4.60;;;;;;;-145.68;58.55;72950.16;10473678;28;20215;-69
2023/10/12 06:32:31;;;;;;;11.43;4.38;;;;;;;-145.68;58.86;72960.16;10474368;28;20210;-68
2023/10/12 06:43:57;;;;;;;14.63;4.85;;;;;;;-145.68;59.58;72992.13;10471997;28;20621;-68
2023/10/12 06:53:34;;;;;;;12.43;4.28;;;;;;;-145.68;59.37;72972.16;10473641;28;20247;-68
2023/10/12 06:58:37;;;;;;;16.73;4.25;;;;;;;-145.68;59.19;72980.13;10466217;28;20275;-67
2023/10/12 07:03:37;;;;;;;13.30;5.10;;;;;;;-145.68;59.22;72964.16;10471389;28;20372;-68
2023/10/12 07:08:42;;;;;;;14.23;4.50;;;;;;;-145.68;59.87;72972.16;10471448;28;20280;-68
2023/10/12 07:13:45;;;;;;;13.23;4.70;;;;;;;-145.68;61.65;73002.13;10465283;28;20216;-67
2023/10/12 07:18:49;;;;;;;14.75;4.70;;;;;;;-145.68;64.60;73050.09;10471419;28;20291;-68
2023/10/12 07:23:52;;;;;;;9.27;4.70;;;;;;;-145.68;64.95;73082.06;10471447;28;20214;-68
2023/10/12 07:28:55;;;;;;;13.90;5.55;;;;;;;-145.68;66.87;73110.06;10468653;28;20773;-67
2023/10/12 07:39:14;;;;;;;14.07;5.15;;;;;;;-145.68;69.36;73120.03;10472015;28;20195;-68
2023/10/12 07:44:15;;;;;;;11.88;5.18;;;;;;;-145.68;69.78;73148.03;10468944;28;20256;-68
2023/10/12 07:49:25;;;;;;;7.75;4.72;;;;;;;-145.68;72.52;73148.03;10471060;28;20272;-68
2023/10/12 08:05:15;;;;;;;14.38;5.55;;;;;;;-145.68;78.66;73186.00;10466714;28;20238;-69
2023/10/12 08:10:16;;;;;;;10.80;5.45;;;;;;;-145.68;80.63;73211.97;10449587;28;20228;-67
2023/10/12 08:15:16;;;;;;;14.98;6.47;;;;;;;-145.68;82.47;73217.97;10467157;28;20194;-66
2023/10/12 08:25:38;;;;;;;14.43;6.65;;;;;;;-145.68;90.17;73229.97;10468769;28;20261;-66
2023/10/12 08:30:48;;;;;;;15.95;5.47;;;;;;;-145.68;92.42;73203.97;10461298;28;20228;-65
2023/10/12 08:52:04;;;;;;;20.13;5.82;;;;;;;-145.68;86.55;73168.00;10455568;28;20269;-68
2023/10/12 08:57:38;;;;;;;14.77;5.57;;;;;;;-145.68;85.96;73188.00;10471518;28;20195;-69
2023/10/12 09:02:39;;;;;;;17.25;5.60;;;;;;;-145.68;85.03;73205.97;10461206;28;20220;-68
2023/10/12 09:07:45;;;;;;;15.25;6.28;;;;;;;-145.68;85.08;73211.97;10456490;28;20285;-69
2023/10/12 09:12:46;;;;;;;14.77;5.50;;;;;;;-145.68;85.24;73219.97;10468120;28;20215;-69
2023/10/12 09:17:48;;;;;;;15.63;5.65;;;;;;;-145.68;87.11;73239.97;10465171;28;20203;-68
2023/10/12 09:22:56;;;;;;;15.48;6.32;;;;;;;-145.68;89.94;73253.94;10468010;28;20215;-68
2023/10/12 09:27:57;;;;;;;12.23;6.30;;;;;;;-145.68;92.15;73279.94;10466589;28;20219;-69
2023/10/12 09:33:10;;;;;;;12.52;5.18;;;;;;;-145.68;99.99;73291.94;10468187;28;20222;-68
2023/10/12 09:38:15;;;;;;;11.55;5.47;;;;;;;-145.68;100.00;73311.91;10458215;28;20961;-69
2023/10/12 09:43:17;;;;;;;11.77;5.32;;;;;;;-145.68;100.00;73329.91;10467575;28;20232;-69
2023/10/12 09:48:24;;;;;;;7.07;4.82;;;;;;;-145.68;100.00;73333.91;10464598;28;20238;-69
2023/10/12 09:53:36;;;;;;;12.30;5.15;;;;;;;-145.68;100.00;73353.88;10469321;28;20595;-70
2023/10/12 10:04:27;;;;;;;11.30;4.72;;;;;;;-145.68;100.00;73371.88;10472949;28;20229;-69
2023/10/12 10:09:36;;;;;;;13.32;4.90;;;;;;;-145.68;100.00;73365.88;10472532;28;20211;-68
2023/10/12 10:14:39;;;;;;;10.30;4.63;;;;;;;-145.68;100.00;73367.88;10477265;28;20188;-68
2023/10/12 10:19:39;;;;;;;10.23;4.60;;;;;;;-145.68;100.00;73363.88;10470003;28;20265;-68
2023/10/12 10:24:43;;;;;;;8.57;4.20;;;;;;;-145.68;100.00;73387.88;10476658;28;20246;-68
2023/10/12 10:29:53;;;;;;;12.35;4.75;;;;;;;-145.68;100.00;73413.84;10475632;28;20643;-69
2023/10/12 10:34:56;;;;;;;12.65;4.70;;;;;;;-145.68;100.00;73417.84;10477390;28;20199;-69
2023/10/12 10:39:57;;;;;;;17.40;7.72;;;;;;;-145.68;100.00;73409.84;10473952;28;20318;-68
2023/10/12 10:45:09;;;;;;;10.52;6.63;;;;;;;-145.68;100.00;73405.84;10472812;28;20197;-69
2023/10/12 10:50:15;;;;;;;11.43;4.72;;;;;;;-145.68;100.00;73413.84;10469552;28;20223;-71
2023/10/12 10:55:24;;;;;;;9.55;4.78;;;;;;;-145.68;100.00;73425.84;10473432;28;20695;-69
2023/10/12 11:00:33;;;;;;;14.45;5.18;;;;;;;-145.68;100.00;73429.84;10472720;28;20211;-70
2023/10/12 11:05:37;;;;;;;12.50;4.20;;;;;;;-145.68;100.00;73431.84;10471489;28;20241;-70
2023/10/12 11:11:25;;;;;;;7.95;4.07;;;;;;;-145.68;100.00;73443.84;10464261;28;20212;-70
2023/10/12 11:16:20;;;;;;;10.05;4.72;;;;;;;-145.68;100.00;73419.84;10468587;28;20290;-70
2023/10/12 11:21:27;;;;;;;10.75;4.63;;;;;;;-145.68;100.00;73391.84;10470340;28;20289;-70
2023/10/12 11:26:39;;;;;;;16.77;4.57;;;;;;;-145.68;100.00;73373.88;10469469;28;20187;-70
2023/10/12 11:31:39;;;;;;;13.98;4.03;;;;;;;-145.68;100.00;73359.88;10467610;28;20759;-70
2023/10/12 11:36:41;;;;;;;11.32;4.80;;;;;;;-145.68;100.00;73359.88;10471438;28;20207;-71
2023/10/12 11:41:41;;;;;;;26.25;16.52;;;;;;;-145.68;100.00;73345.88;10470874;28;20239;-71
2023/10/12 11:46:43;;;;;;;9.88;4.00;;;;;;;-145.68;100.00;73361.88;10469675;28;20216;-70
2023/10/12 11:52:14;;;;;;;12.73;4.03;;;;;;;-145.68;100.00;73367.88;10467005;28;20597;-71
2023/10/12 11:57:07;;;;;;;11.60;3.92;;;;;;;-145.68;100.00;73371.88;10469665;28;20235;-69
2023/10/12 12:02:09;;;;;;;12.75;4.45;;;;;;;-145.68;100.00;73377.88;10470074;28;20747;-69
2023/10/12 12:07:10;;;;;;;12.38;4.72;;;;;;;-145.68;100.00;73405.84;10465394;28;20694;-70
2023/10/12 12:12:16;;;;;;;7.25;4.05;;;;;;;-145.68;100.00;73411.84;10465202;28;20849;-70
2023/10/12 12:17:16;;;;;;;24.67;11.25;;;;;;;-145.68;100.00;73405.84;10468862;28;20185;-71
2023/10/12 12:22:17;;;;;;;16.75;6.82;;;;;;;-145.68;100.00;73431.84;10454931;28;20720;-69
2023/10/12 12:27:37;;;;;;;12.45;5.60;;;;;;;-145.68;100.00;73433.84;10457267;28;20214;-70
2023/10/12 12:32:37;;;;;;;14.55;4.60;;;;;;;-145.68;100.00;73443.84;10454650;28;20204;-68
2023/10/12 12:37:38;;;;;;;18.55;6.00;;;;;;;-145.68;100.00;73447.81;10456321;28;20194;-69
2023/10/12 12:42:38;;;;;;;15.70;4.40;;;;;;;-145.68;100.00;73471.81;10454694;28;20281;-69
2023/10/12 12:47:39;;;;;;;31.77;21.60;;;;;;;-145.68;100.00;73491.81;10455619;28;20582;-68
2023/10/12 12:52:46;;;;;;;21.20;10.00;;;;;;;-145.68;100.00;73497.78;10457037;28;20296;-70
2023/10/12 12:57:47;;;;;;;12.85;4.70;;;;;;;-145.68;100.00;73503.78;10463783;28;20274;-70
2023/10/12 13:02:48;;;;;;;13.15;6.30;;;;;;;-145.68;100.00;73495.78;10467401;28;20226;-70
2023/10/12 13:07:48;;;;;;;15.75;5.15;;;;;;;-145.68;100.00;73495.78;10456974;28;20594;-70
2023/10/12 13:12:49;;;;;;;16.45;8.88;;;;;;;-145.68;100.00;73471.81;10458693;28;20222;-70
2023/10/12 13:17:49;;;;;;;12.55;7.28;;;;;;;-145.68;100.00;73479.81;10457882;28;20191;-69
2023/10/12 13:22:49;;;;;;;11.50;5.07;;;;;;;-145.68;100.00;73461.81;10459844;28;20586;-69
2023/10/12 13:27:51;;;;;;;12.05;4.35;;;;;;;-145.68;100.00;73457.81;10466172;28;20644;-70
2023/10/12 13:32:59;;;;;;;11.35;4.32;;;;;;;-145.68;100.00;73457.81;10473953;28;20604;-70
2023/10/12 13:38:03;;;;;;;16.23;6.68;;;;;;;-145.68;100.00;73453.81;10473646;28;20199;-69
2023/10/12 13:43:14;;;;;;;12.88;5.28;;;;;;;-145.68;100.00;73443.84;10466118;28;20223;-70
2023/10/12 13:48:20;;;;;;;11.32;4.95;;;;;;;-145.68;100.00;73451.81;10472757;28;20218;-69
2023/10/12 13:53:23;;;;;;;16.75;5.78;;;;;;;-145.68;100.00;73445.81;10471026;28;20571;-70
2023/10/12 13:58:26;;;;;;;15.07;6.70;;;;;;;-145.68;100.00;73449.81;10462642;28;20199;-69
2023/10/12 14:03:29;;;;;;;14.90;4.43;;;;;;;-145.68;100.00;73427.84;10475065;28;20656;-68
2023/10/12 14:08:32;;;;;;;6.03;3.78;;;;;;;-145.68;100.00;73427.84;10468689;28;20336;-68
2023/10/12 14:13:33;;;;;;;10.07;4.53;;;;;;;-145.68;100.00;73429.84;10463636;28;20716;-67
2023/10/12 14:18:33;;;;;;;10.18;4.43;;;;;;;-145.68;100.00;73427.84;10465629;28;20551;-67
2023/10/12 14:23:39;;;;;;;15.52;5.47;;;;;;;-145.68;100.00;73437.84;10466177;28;20215;-66
2023/10/12 14:28:41;;;;;;;22.35;11.05;;;;;;;-145.68;100.00;73423.84;10456756;28;20808;-66
2023/10/12 14:33:42;;;;;;;11.60;4.45;;;;;;;-145.68;100.00;73417.84;10473536;28;20215;-67
2023/10/12 14:38:44;;;;;;;12.02;4.30;;;;;;;-145.68;100.00;73411.84;10471995;28;20198;-65
2023/10/12 14:43:47;;;;;;;46.97;8.27;;;;;;;-145.68;100.00;73423.84;10468785;28;20243;-66
2023/10/12 14:48:51;;;;;;;18.63;5.40;;;;;;;-145.68;100.00;73415.84;10470744;28;20219;-66
2023/10/12 14:53:51;;;;;;;17.92;5.30;;;;;;;-145.68;100.00;73399.84;10470452;28;20230;-66
2023/10/12 14:58:52;;;;;;;12.00;4.65;;;;;;;-145.68;100.00;73411.84;10454940;28;20204;-67
2023/10/12 15:03:52;;;;;;;56.95;9.32;;;;;;;-145.68;100.00;73383.88;10469566;28;20226;-66
2023/10/12 15:08:53;;;;;;;10.98;3.97;;;;;;;-145.68;100.00;73375.88;10471629;28;20284;-67
2023/10/12 15:13:54;;;;;;;16.17;4.30;;;;;;;-145.68;100.00;73349.88;10461586;28;20728;-66
2023/10/12 15:18:57;;;;;;;12.95;3.83;;;;;;;-145.68;100.00;73347.88;10463851;28;20306;-67
2023/10/12 15:23:57;;;;;;;10.13;4.28;;;;;;;-145.68;100.00;73347.88;10467134;28;20302;-67
2023/10/12 15:28:57;;;;;;;14.23;3.70;;;;;;;-145.68;100.00;73371.88;10463316;28;20211;-66
2023/10/12 15:33:58;;;;;;;12.77;4.00;;;;;;;-145.68;100.00;73391.84;10457167;28;20276;-67
2023/10/12 15:38:58;;;;;;;15.70;4.78;;;;;;;-145.68;100.00;73389.88;10458494;28;20183;-65
2023/10/12 15:43:59;;;;;;;9.63;3.85;;;;;;;-145.68;100.00;73411.84;10466863;28;20321;-66
2023/10/12 15:49:01;;;;;;;9.25;3.92;;;;;;;-145.68;100.00;73411.84;10471851;28;20231;-67
2023/10/12 15:54:05;;;;;;;11.15;3.90;;;;;;;-145.68;100.00;73441.81;10471952;28;20219;-66
2023/10/12 15:59:06;;;;;;;11.98;4.05;;;;;;;-145.68;100.00;73453.81;10471739;28;20664;-67
2023/10/12 16:04:08;;;;;;;125.40;47.90;;;;;;;-145.68;100.00;73455.81;10467095;28;20214;-66
2023/10/12 16:09:12;;;;;;;19.23;8.32;;;;;;;-145.68;100.00;73459.81;10469661;28;20244;-66
2023/10/12 16:14:16;;;;;;;15.30;7.72;;;;;;;-145.68;100.00;73479.81;10468692;28;20222;-67
2023/10/12 16:19:18;;;;;;;13.45;6.18;;;;;;;-145.68;100.00;73473.81;10471253;28;20187;-66
2023/10/12 16:24:18;;;;;;;14.80;6.28;;;;;;;-145.68;100.00;73491.81;10471787;28;20565;-66
2023/10/12 16:29:19;;;;;;;12.93;6.78;;;;;;;-145.68;100.00;73491.81;10467313;28;20223;-66
2023/10/12 16:34:20;;;;;;;15.70;6.55;;;;;;;-145.68;100.00;73503.78;10459780;28;20192;-66
2023/10/12 16:39:20;;;;;;;12.65;7.93;;;;;;;-145.68;100.00;73511.78;10457336;28;20242;-67
2023/10/12 16:44:22;;;;;;;17.90;7.72;;;;;;;-145.68;100.00;73511.78;10462040;28;20641;-67
2023/10/12 16:49:27;;;;;;;13.63;5.25;;;;;;;-145.68;100.00;73513.78;10468387;28;20278;-67
2023/10/12 16:54:27;;;;;;;24.38;6.90;;;;;;;-145.68;100.00;73525.78;10468045;28;20207;-66
2023/10/12 16:59:27;;;;;;;14.30;5.07;;;;;;;-145.68;100.00;73521.78;10468182;28;20195;-67
2023/10/12 17:04:34;;;;;;;18.63;5.10;;;;;;;-145.68;100.00;73525.78;10467793;28;20205;-66
2023/10/12 17:09:34;;;;;;;13.73;6.22;;;;;;;-145.68;100.00;73535.78;10476155;28;20950;-66
2023/10/12 17:14:36;;;;;;;13.45;5.47;;;;;;;-145.68;100.00;73515.78;10475940;28;20203;-66
2023/10/12 17:19:37;;;;;;;9.23;4.82;;;;;;;-145.68;100.00;73503.78;10475411;28;20200;-67
2023/10/12 17:24:40;;;;;;;16.48;5.25;;;;;;;-145.68;100.00;73511.78;10476350;28;20200;-67
2023/10/12 17:29:40;;;;;;;8.35;4.97;;;;;;;-145.68;100.00;73507.78;10467892;28;20224;-66
2023/10/12 17:34:40;;;;;;;10.27;4.80;;;;;;;-145.68;100.00;73489.81;10472347;28;20188;-67
2023/10/12 17:39:41;;;;;;;13.23;5.55;;;;;;;-145.68;100.00;73481.81;10475520;28;20235;-67
2023/10/12 17:44:42;;;;;;;9.38;5.35;;;;;;;-145.68;100.00;73487.81;10474185;28;20191;-66
2023/10/12 17:49:43;;;;;;;15.07;5.18;;;;;;;-145.68;100.00;73483.81;10474631;28;20240;-67
2023/10/12 17:54:44;;;;;;;10.65;5.07;;;;;;;-145.68;100.00;73485.81;10474946;28;20203;-67
2023/10/12 17:59:46;;;;;;;10.15;5.18;;;;;;;-145.68;100.00;73489.81;10468401;28;20239;-67
2023/10/12 18:04:47;;;;;;;12.23;4.68;;;;;;;-145.68;100.00;73481.81;10473864;28;20191;-67
2023/10/12 18:09:49;;;;;;;15.23;5.35;;;;;;;-145.68;100.00;73503.78;10477163;28;20298;-66
2023/10/12 18:14:49;;;;;;;11.70;5.55;;;;;;;-145.68;100.00;73495.78;10476935;28;20631;-67
2023/10/12 18:19:49;;;;;;;15.55;5.47;;;;;;;-145.68;100.00;73507.78;10476867;28;20216;-67
2023/10/12 18:24:50;;;;;;;12.02;5.78;;;;;;;-145.68;100.00;73499.78;10477060;28;20271;-67
2023/10/12 18:29:50;;;;;;;12.77;4.82;;;;;;;-145.68;100.00;73495.78;10476299;28;20273;-67
2023/10/12 18:34:51;;;;;;;13.63;4.72;;;;;;;-145.68;100.00;73499.78;10475707;28;20843;-67
2023/10/12 18:39:51;;;;;;;10.23;4.88;;;;;;;-145.68;100.00;73503.78;10476260;28;20317;-68
2023/10/12 18:44:52;;;;;;;12.27;5.00;;;;;;;-145.68;100.00;73499.78;10476016;28;20219;-67
2023/10/12 18:49:52;;;;;;;10.90;4.80;;;;;;;-145.68;100.00;73493.81;10475463;28;20244;-67
2023/10/12 18:54:55;;;;;;;14.32;5.07;;;;;;;-145.68;100.00;73481.81;10475692;28;20243;-67
2023/10/12 18:59:55;;;;;;;15.25;5.45;;;;;;;-145.68;100.00;73471.81;10475399;28;20216;-68
2023/10/12 19:04:56;;;;;;;11.57;5.53;;;;;;;-145.68;100.00;73483.81;10474717;28;20223;-67
2023/10/12 19:09:56;;;;;;;14.43;4.78;;;;;;;-145.68;100.00;73479.81;10474302;28;20705;-67
2023/10/12 19:14:56;;;;;;;10.70;4.75;;;;;;;-145.68;100.00;73489.81;10474911;28;20720;-67
2023/10/12 19:19:57;;;;;;;8.93;5.00;;;;;;;-145.68;100.00;73481.81;10474498;28;20728;-67
2023/10/12 19:24:57;;;;;;;9.88;5.00;;;;;;;-145.68;100.00;73453.81;10474393;28;20191;-67
2023/10/12 19:29:57;;;;;;;8.98;4.20;;;;;;;-145.68;100.00;73471.81;10473388;28;20231;-67
2023/10/12 19:34:58;;;;;;;9.90;4.55;;;;;;;-145.68;100.00;73475.81;10474638;28;20275;-67
2023/10/12 19:39:58;;;;;;;13.70;6.45;;;;;;;-145.68;100.00;73467.81;10473370;28;20243;-68
2023/10/12 19:44:59;;;;;;;14.20;4.80;;;;;;;-145.68;100.00;73451.81;10473855;28;20731;-67
2023/10/12 19:50:00;;;;;;;13.02;5.40;;;;;;;-145.68;100.00;73467.81;10472803;28;20716;-68
2023/10/12 19:55:05;;;;;;;15.70;6.00;;;;;;;-145.68;100.00;73481.81;10473437;28;20219;-68
2023/10/12 20:00:24;;;;;;;12.23;5.28;;;;;;;-145.68;100.00;73491.81;10471527;28;20230;-67
2023/10/12 20:05:24;;;;;;;9.95;5.35;;;;;;;-145.68;100.00;73503.78;10460757;28;20246;-68
2023/10/12 20:10:25;;;;;;;11.07;5.65;;;;;;;-145.68;100.00;73515.78;10460016;28;20212;-68
2023/10/12 20:15:25;;;;;;;9.93;5.70;;;;;;;-145.68;100.00;73497.78;10459824;28;20226;-68
2023/10/12 20:20:26;;;;;;;10.68;5.05;;;;;;;-145.68;100.00;73491.81;10461085;28;20217;-68
2023/10/12 20:25:26;;;;;;;13.52;5.38;;;;;;;-145.68;100.00;73497.78;10458790;28;20203;-68
2023/10/12 20:30:27;;;;;;;13.30;5.55;;;;;;;-145.68;100.00;73487.81;10471751;28;20231;-68
2023/10/12 20:35:28;;;;;;;12.13;5.60;;;;;;;-145.68;100.00;73503.78;10472119;28;20207;-67
2023/10/12 20:40:28;;;;;;;12.70;5.88;;;;;;;-145.68;100.00;73497.78;10470994;28;20719;-68
2023/10/12 20:45:29;;;;;;;12.38;5.05;;;;;;;-145.68;100.00;73479.81;10471433;28;20217;-68
2023/10/12 20:50:29;;;;;;;11.07;5.38;;;;;;;-145.68;100.00;73489.81;10471098;28;20310;-68
2023/10/12 20:55:29;;;;;;;13.48;5.25;;;;;;;-145.68;100.00;73495.78;10471510;28;20584;-68
2023/10/12 21:00:33;;;;;;;10.70;5.63;;;;;;;-145.68;100.00;73503.78;10470804;28;20602;-68
2023/10/12 21:05:34;;;;;;;16.35;6.15;;;;;;;-145.68;100.00;73489.81;10470736;28;20184;-67
2023/10/12 21:10:35;;;;;;;14.68;5.65;;;;;;;-145.68;100.00;73491.81;10471006;28;20222;-68
2023/10/12 21:15:38;;;;;;;14.18;6.15;;;;;;;-145.68;100.00;73519.78;10471445;28;20192;-68
2023/10/12 21:20:43;;;;;;;13.73;6.10;;;;;;;-145.68;100.00;73517.78;10463446;28;20353;-68
2023/10/12 21:25:45;;;;;;;15.50;5.85;;;;;;;-145.68;100.00;73491.81;10471045;28;20187;-68
2023/10/12 21:30:50;;;;;;;12.65;5.55;;;;;;;-145.68;100.00;73467.81;10471132;28;20227;-68
2023/10/12 21:35:54;;;;;;;7.32;5.13;;;;;;;-145.68;100.00;73443.84;10471110;28;20195;-68
2023/10/12 21:40:58;;;;;;;11.23;5.97;;;;;;;-145.68;100.00;73441.81;10470191;28;20576;-68
2023/10/12 21:46:00;;;;;;;12.00;6.15;;;;;;;-145.68;100.00;73427.84;10471119;28;20199;-68
2023/10/12 21:51:03;;;;;;;6.72;5.75;;;;;;;-145.68;100.00;73403.84;10474686;28;20211;-68
2023/10/12 21:56:05;;;;;;;12.88;5.63;;;;;;;-145.68;100.00;73399.84;10478373;28;20187;-68
2023/10/12 22:01:09;;;;;;;8.95;5.93;;;;;;;-145.68;100.00;73399.84;10478026;28;20203;-68
2023/10/12 22:06:11;;;;;;;10.60;5.93;;;;;;;-145.68;100.00;73403.84;10478102;28;20202;-68
2023/10/12 22:11:14;;;;;;;11.85;6.53;;;;;;;-145.68;100.00;73397.84;10474164;28;20219;-68
2023/10/12 22:16:30;;;;;;;10.60;6.18;;;;;;;-145.68;100.00;73399.84;10477694;28;20211;-68
2023/10/12 22:21:31;;;;;;;11.48;6.03;;;;;;;-145.68;100.00;73395.84;10477104;28;20215;-68
2023/10/12 22:26:36;;;;;;;6.85;5.65;;;;;;;-145.68;100.00;73393.84;10476810;28;20195;-69
2023/10/12 22:31:37;;;;;;;7.85;5.28;;;;;;;-145.68;100.00;73401.84;10475920;28;20216;-68
2023/10/12 22:36:38;;;;;;;10.30;5.15;;;;;;;-145.68;100.00;73393.84;10476196;28;20188;-68
2023/10/12 22:41:38;;;;;;;8.68;4.88;;;;;;;-145.68;100.00;73391.84;10476070;28;20240;-67
2023/10/12 22:46:38;;;;;;;6.85;4.30;;;;;;;-145.68;100.00;73391.84;10468340;28;20278;-68
2023/10/12 22:51:39;;;;;;;6.75;4.60;;;;;;;-145.68;100.00;73391.84;10475487;28;20811;-68
2023/10/12 22:56:39;;;;;;;13.23;5.10;;;;;;;-145.68;100.00;73375.88;10476065;28;20214;-68
2023/10/12 23:01:40;;;;;;;7.80;5.20;;;;;;;-145.68;100.00;73375.88;10474188;28;20219;-67
2023/10/12 23:06:40;;;;;;;10.63;5.55;;;;;;;-145.68;100.00;73381.88;10475342;28;20199;-67
2023/10/12 23:11:41;;;;;;;8.05;5.38;;;;;;;-145.68;100.00;73367.88;10475073;28;20212;-68
2023/10/12 23:16:50;;;;;;;8.57;5.47;;;;;;;-145.68;100.00;73371.88;10474903;28;20321;-68
2023/10/12 23:21:51;;;;;;;8.52;5.13;;;;;;;-145.68;100.00;73371.88;10474812;28;20212;-68
2023/10/12 23:26:52;;;;;;;7.68;5.22;;;;;;;-145.68;100.00;73381.88;10474341;28;20199;-68
2023/10/12 23:31:55;;;;;;;8.60;5.10;;;;;;;-145.68;100.00;73369.88;10473812;28;20306;-68
2023/10/12 23:37:07;;;;;;;14.73;6.70;;;;;;;-145.68;100.00;73385.88;10474229;28;20219;-69
2023/10/12 23:42:08;;;;;;;9.63;5.70;;;;;;;-145.68;100.00;73375.88;10473667;28;20235;-67
2023/10/12 23:47:17;;;;;;;11.52;5.72;;;;;;;-145.68;100.00;73383.88;10473376;28;20608;-67